LGTS - Thessaloniki/Mik, Greece
Distance from station: 15km
: 01/07/2022 08:20
Few Clouds
Few Clouds
   calm
:
: 26°C
: 18°C
: 61%
: 1014 hPa
Clouds: Few Clouds
Visibility: 10 km
Cloud details: Few Clouds 762 m
2022/07/01 05:20 LGTS 010520Z 00000KT 9999 FEW025 26/18 Q1014 NOSIG
LGKZ - Kozani (civ/Army, Greece
Distance from station: 113km
: 01/07/2022 07:50
Clear
Clear
   calm
:
: 22°C
: 15°C
: 65%
: 1018 hPa
: Clear
Visibility: greater than 10 km
2022/07/01 04:50 LGKZ 010450Z 00000KT CAVOK 22/15 Q1018
 
LGKV - Kavala/Chrisoupo, Greece
Distance from station: 132km
: 01/07/2022 08:20
Clear
Clear
   calm
:
: 23°C
: 15°C
: 61%
: 1013 hPa
: Clear
Visibility: greater than 10 km
2022/07/01 05:20 LGKV 010520Z 00000KT CAVOK 23/15 Q1013
LGBL - Nea Anchialos, Greece
Distance from station: 156km
: 01/07/2022 08:20
Clear
Clear
   calm
:
: 27°C
Heat Index: 27°C
: 15°C
: 48%
: 1014 hPa
: Clear
Visibility: greater than 10 km
2022/07/01 05:20 LGBL 010520Z 00000KT CAVOK 27/15 Q1014
 
LGSK - Skiathos Island, Greece
Distance from station: 161km
: 01/07/2022 07:50
Clear
Clear
   varies
: varies 6 km/h
: 26°C
: 21°C
: 74%
: 1013 hPa
: Clear
Visibility: greater than 10 km
2022/07/01 04:50 LGSK 010450Z VRB03KT CAVOK 26/21 Q1013
LWSK - Skopje/Petrovac, Macedonia
Distance from station: 195km
: 01/07/2022 08:30
Clear
Clear

: 2 km/h
: 24°C
: 18°C
: 69%
: 1016 hPa
: Clear
Visibility: greater than 10 km
2022/07/01 05:30 LWSK 010530Z 33001KT CAVOK 24/18 Q1016 NOSIG
 
LGLM - Limnos Island Ar, Greece
Distance from station: 196km
: 01/07/2022 08:20
Clear
Clear

: 13 km/h
: 25°C
: 19°C
: 69%
: 1013 hPa
: Clear
Visibility: greater than 10 km
2022/07/01 05:20 LGLM 010520Z 04007KT CAVOK 25/19 Q1013
LWOH - Ohrid, Macedonia
Distance from station: 202km
: 01/07/2022 08:30
Clear
Clear

: 4 km/h
: 21°C
: 17°C
: 78%
: 1018 hPa
: Clear
Visibility: greater than 10 km
2022/07/01 05:30 LWOH 010530Z 32002KT CAVOK 21/17 Q1018
 
LGSY - Skiros, Greece
Distance from station: 217km
: 01/07/2022 07:50
Clear
Clear

: 20 km/h
: 25°C
: 21°C
: 79%
: 1013 hPa
: Clear
Visibility: greater than 10 km
2022/07/01 04:50 LGSY 010450Z 35011KT CAVOK 25/21 Q1013 BLU
LGIO - Ioannina, Greece
Distance from station: 218km
: 01/07/2022 08:20
Clear
Clear
   varies
: varies 6 km/h
: 17°C
: 16°C
: 94%
: 1017 hPa
: Clear
Visibility: greater than 10 km
2022/07/01 05:20 LGIO 010520Z VRB03KT CAVOK 17/16 Q1017
 
LBPD - Plovdiv, Bulgaria
Distance from station: 222km
: 01/07/2022 08:30
Clear
Clear

: 7 km/h
: 23°C
: 15°C
: 61%
: 1016 hPa
Clouds: Clear
Visibility: 10 km
2022/07/01 05:30 LBPD 010530Z AUTO 30004KT 270V330 9999 NCD 23/15 Q1016 NOSIG
LBSF - Sofia (observato, Bulgaria
Distance from station: 229km
: 01/07/2022 08:30
Clear
Clear
   calm
:
: 21°C
: 15°C
: 69%
: 1018 hPa
: Clear
Visibility: greater than 10 km
2022/07/01 05:30 LBSF 010530Z 00000KT CAVOK 21/15 Q1018 NOSIG
 
LGAL - Alexandroupolis, Greece
Distance from station: 242km
: 01/07/2022 08:20
Clear
Clear
   calm
:
: 23°C
: 17°C
: 69%
: 1014 hPa
: Clear
Visibility: greater than 10 km
2022/07/01 05:20 LGAL 010520Z 00000KT CAVOK 23/17 Q1014
LGPZ - Preveza/Aktion, Greece
Distance from station: 274km
: 01/07/2022 08:20
Clear
Clear

: 7 km/h
: 27°C
Heat Index: 29°C
: 20°C
: 66%
: 1013 hPa
: Clear
Visibility: greater than 10 km
2022/07/01 05:20 LGPZ 010520Z 02004KT CAVOK 27/20 Q1013
 
BKPR - Prishtina, Yugoslavia
Distance from station: 280km
: 01/07/2022 08:30
Clear
Clear
   varies
: varies 2 km/h
: 22°C
: 16°C
: 69%
: 1017 hPa
: Clear
Visibility: greater than 10 km
2022/07/01 05:30 BKPR 010530Z VRB01KT CAVOK 22/16 Q1017 NOSIG
LGEL - Elefsis (hel-Afb, Greece
Distance from station: 284km
: 01/07/2022 08:20
Clear
Clear

: 13 km/h
: 28°C
Heat Index: 28°C
: 15°C
: 45%
: 1013 hPa
: Clear
Visibility: greater than 10 km
2022/07/01 05:20 LGEL 010520Z 32007KT CAVOK 28/15 Q1013
 
LATI - Tirana, Albania
Distance from station: 291km
: 01/07/2022 08:20
Clear
Clear
   varies
: varies 6 km/h
: 25°C
: 19°C
: 69%
: 1014 hPa
: Clear
Visibility: greater than 10 km
2022/07/01 05:20 LATI 010520Z VRB03KT CAVOK 25/19 Q1014 NOSIG
LGKR - Ioannis Kapodist, Greece
Distance from station: 292km
: 01/07/2022 08:20
Clear
Clear
   varies
: varies 4 km/h
: 25°C
: 19°C
: 69%
: 1012 hPa
: Clear
Visibility: greater than 10 km
2022/07/01 05:20 LGKR 010520Z VRB02KT CAVOK 25/19 Q1012 NOSIG